createdAt,value
2017-05-16T00:00:02.118Z,73.4
2017-05-16T00:10:02.472Z,73.87
2017-05-16T00:20:02.046Z,74.91
2017-05-16T00:30:02.522Z,75.28
2017-05-16T00:40:02.790Z,75.75
2017-05-16T00:50:02.396Z,75.39
2017-05-16T01:00:02.829Z,75.87
2017-05-16T01:10:02.176Z,75.63
2017-05-16T01:20:02.523Z,75.82
2017-05-16T01:30:03.021Z,75.97
2017-05-16T01:40:02.498Z,77.19
2017-05-16T01:50:02.435Z,78.28
2017-05-16T02:00:02.896Z,78.42
2017-05-16T02:10:02.578Z,78.71
2017-05-16T02:20:02.605Z,78.1
2017-05-16T02:30:02.109Z,77.29
2017-05-16T02:40:02.582Z,77.76
2017-05-16T02:50:03.068Z,77.81
2017-05-16T03:00:02.551Z,77.91
2017-05-16T03:10:02.099Z,77.25
2017-05-16T03:20:02.178Z,77.71
2017-05-16T03:30:02.667Z,78.16
2017-05-16T03:40:02.083Z,78.37
2017-05-16T03:50:02.800Z,78.22
2017-05-16T04:00:02.272Z,77.49
2017-05-16T04:10:02.301Z,78.19
2017-05-16T04:20:02.531Z,77.93
2017-05-16T04:30:02.916Z,78.71
2017-05-16T04:40:02.524Z,78.86
2017-05-16T04:50:02.901Z,78.48
2017-05-16T05:00:02.096Z,79.02
2017-05-16T05:10:02.703Z,77.71
2017-05-16T05:20:02.285Z,77.24
2017-05-16T05:30:02.640Z,76.56
2017-05-16T05:40:02.118Z,77.76
2017-05-16T05:50:02.845Z,78.92
2017-05-16T06:00:02.835Z,81.1
2017-05-16T06:10:02.491Z,81.31
2017-05-16T06:20:02.981Z,81.76
2017-05-16T06:30:02.658Z,79.05
2017-05-16T06:40:02.078Z,77.94
2017-05-16T06:50:02.932Z,79.22
2017-05-16T07:00:02.923Z,79
2017-05-16T07:10:02.999Z,77.98
2017-05-16T07:20:02.267Z,78.59
2017-05-16T07:30:02.737Z,77.77
2017-05-16T07:40:02.099Z,74.39
2017-05-16T07:50:02.175Z,74.14
2017-05-16T08:00:02.203Z,73.24
2017-05-16T08:10:02.273Z,72.69
2017-05-16T08:20:02.602Z,71.82
2017-05-16T08:30:02.913Z,73.82
2017-05-16T08:40:02.955Z,71.5
2017-05-16T08:50:02.352Z,70.42
2017-05-16T09:00:02.352Z,71.67
2017-05-16T09:10:02.419Z,70.76
2017-05-16T09:20:02.817Z,71.63
2017-05-16T09:30:02.155Z,70.87
2017-05-16T09:40:02.552Z,71.75
2017-05-16T09:50:02.698Z,70.05
2017-05-16T10:00:02.728Z,71.34
2017-05-16T10:10:02.172Z,67.36
2017-05-16T10:20:02.791Z,68.55
2017-05-16T10:30:02.225Z,68.5
2017-05-16T10:40:02.679Z,69.93
2017-05-16T10:50:02.045Z,69.56
2017-05-16T11:00:02.439Z,68.34
2017-05-16T11:10:02.468Z,66.38
2017-05-16T11:20:02.875Z,65.06
2017-05-16T11:30:02.211Z,67.43
2017-05-16T11:40:02.297Z,68.57
2017-05-16T11:50:02.414Z,66.88
2017-05-16T12:00:02.416Z,67.38
2017-05-16T12:10:02.939Z,67.24
2017-05-16T12:20:02.458Z,67.28
2017-05-16T12:30:03.003Z,66.34
2017-05-16T12:40:02.420Z,66.4
2017-05-16T12:50:02.588Z,64.9
2017-05-16T13:00:02.969Z,64.56
2017-05-16T13:10:03.000Z,63.2
2017-05-16T13:20:02.550Z,62.52
2017-05-16T13:30:02.893Z,61.81
2017-05-16T13:40:02.968Z,61.34
2017-05-16T13:50:02.780Z,61.01
2017-05-16T14:00:02.800Z,59.65
2017-05-16T14:10:02.888Z,60.12
2017-05-16T14:20:02.099Z,59.26
2017-05-16T14:30:02.864Z,60.05
2017-05-16T14:40:02.637Z,61.32
2017-05-16T14:50:02.723Z,61.86
2017-05-16T15:00:02.700Z,61.81
2017-05-16T15:10:02.758Z,60.87
2017-05-16T15:20:02.326Z,60.07
2017-05-16T15:30:02.651Z,60.89
2017-05-16T15:40:02.650Z,62.33
2017-05-16T15:50:02.866Z,63.17
2017-05-16T16:00:03.032Z,64.17
2017-05-16T16:10:02.124Z,64.82
2017-05-16T16:20:02.020Z,65.25
2017-05-16T16:30:02.789Z,66.27
2017-05-16T16:40:02.196Z,66.05
2017-05-16T16:50:02.670Z,66.41
2017-05-16T17:00:02.938Z,66.77
2017-05-16T17:10:03.018Z,68.28
2017-05-16T17:20:02.401Z,68.11
2017-05-16T17:30:02.153Z,68.87
2017-05-16T17:40:02.240Z,69.81
2017-05-16T17:50:02.333Z,70.05
2017-05-16T18:00:02.340Z,70.4
2017-05-16T18:10:02.976Z,70.64
2017-05-16T18:20:02.684Z,71.54
2017-05-16T18:30:02.303Z,71.95
2017-05-16T18:40:02.760Z,72.33
2017-05-16T18:50:02.497Z,72.23
2017-05-16T19:00:03.067Z,72.59
2017-05-16T19:10:03.218Z,72.49
2017-05-16T19:20:02.390Z,72.53
2017-05-16T19:30:02.885Z,73.2
2017-05-16T19:40:02.382Z,73.02
2017-05-16T19:50:02.122Z,72.98
2017-05-16T20:00:02.585Z,73.11
2017-05-16T20:10:02.373Z,73.79
2017-05-16T20:20:02.031Z,73.96
2017-05-16T20:30:02.501Z,74.1
2017-05-16T20:40:03.012Z,75.13
2017-05-16T20:50:02.840Z,74.71
2017-05-16T21:00:02.294Z,75.23
2017-05-16T21:10:02.112Z,75.17
2017-05-16T21:20:02.634Z,75.18
2017-05-16T21:30:02.096Z,75.42
2017-05-16T21:40:02.553Z,75.29
2017-05-16T21:50:02.532Z,75.85
2017-05-16T22:00:02.096Z,76.45
2017-05-16T22:10:02.887Z,77.26
2017-05-16T22:20:02.582Z,77.98
2017-05-16T22:30:02.028Z,78.19
2017-05-16T22:40:02.722Z,78.46
2017-05-16T22:50:02.934Z,79.11
2017-05-16T23:00:02.344Z,79.32
2017-05-16T23:10:02.459Z,79.87
2017-05-16T23:20:02.239Z,79.45
2017-05-16T23:30:02.724Z,80.35
2017-05-16T23:40:02.293Z,80.35
2017-05-16T23:50:02.744Z,81.15
